createdAt,value
2018-07-28T00:00:40.877Z,17.6
2018-07-28T00:01:31.234Z,17.6
2018-07-28T00:02:21.271Z,17.7
2018-07-28T00:03:11.095Z,17.7
2018-07-28T00:04:01.131Z,17.7
2018-07-28T00:04:51.472Z,17.7
2018-07-28T00:05:41.528Z,17.7
2018-07-28T00:06:31.586Z,17.8
2018-07-28T00:07:21.636Z,17.8
2018-07-28T00:08:11.699Z,17.8
2018-07-28T00:09:00.984Z,17.8
2018-07-28T00:09:51.414Z,17.8
2018-07-28T00:10:41.548Z,17.8
2018-07-28T00:11:31.523Z,17.8
2018-07-28T00:12:21.554Z,17.7
2018-07-28T00:13:11.521Z,17.7
2018-07-28T00:14:02.131Z,17.7
2018-07-28T00:14:51.917Z,17.7
2018-07-28T00:15:42.295Z,17.7
2018-07-28T00:16:32.068Z,17.6
2018-07-28T00:17:22.379Z,17.6
2018-07-28T00:18:12.207Z,17.6
2018-07-28T00:19:02.541Z,17.6
2018-07-28T00:19:52.605Z,17.6
2018-07-28T00:20:42.371Z,17.5
2018-07-28T00:21:32.729Z,17.5
2018-07-28T00:22:22.807Z,17.5
2018-07-28T00:23:12.861Z,17.5
2018-07-28T00:24:02.394Z,17.6
2018-07-28T00:24:52.702Z,17.6
2018-07-28T00:25:43.079Z,17.6
2018-07-28T00:26:32.903Z,17.6
2018-07-28T00:27:23.190Z,17.6
2018-07-28T00:28:13.382Z,17.5
2018-07-28T00:29:03.149Z,17.6
2018-07-28T00:29:53.379Z,17.6
2018-07-28T00:30:43.288Z,17.5
2018-07-28T00:31:33.506Z,17.5
2018-07-28T00:32:23.578Z,17.5
2018-07-28T00:33:13.670Z,17.5
2018-07-28T00:34:03.754Z,17.6
2018-07-28T00:34:53.788Z,17.6
2018-07-28T00:35:43.843Z,17.6
2018-07-28T00:36:33.061Z,17.6
2018-07-28T00:37:23.693Z,17.6
2018-07-28T00:38:13.758Z,17.6
2018-07-28T00:39:03.823Z,17.6
2018-07-28T00:39:53.885Z,17.5
2018-07-28T00:40:43.955Z,17.6
2018-07-28T00:41:34.315Z,17.5
2018-07-28T00:42:24.379Z,17.5
2018-07-28T00:43:14.133Z,17.5
2018-07-28T00:44:04.533Z,17.4
2018-07-28T00:44:54.036Z,17.4
2018-07-28T00:45:44.587Z,17.4
2018-07-28T00:46:34.667Z,17.4
2018-07-28T00:47:24.486Z,17.4
2018-07-28T00:48:14.798Z,17.4
2018-07-28T00:49:04.615Z,17.4
2018-07-28T00:49:54.902Z,17.4
2018-07-28T00:50:44.691Z,17.4
2018-07-28T00:51:35.096Z,17.3
2018-07-28T00:52:25.095Z,17.3
2018-07-28T00:53:14.887Z,17.3
2018-07-28T00:54:04.953Z,17.3
2018-07-28T00:54:55.302Z,17.3
2018-07-28T00:55:44.798Z,17.3
2018-07-28T00:56:35.149Z,17.3
2018-07-28T00:57:24.379Z,17.3
2018-07-28T00:58:15.264Z,17.3
2018-07-28T00:59:05.342Z,17.3
2018-07-28T00:59:55.139Z,17.3
2018-07-28T01:00:45.765Z,17.3
2018-07-28T01:01:35.814Z,17.3
2018-07-28T01:02:25.663Z,17.3
2018-07-28T01:03:15.973Z,17.3
2018-07-28T01:04:05.473Z,17.2
2018-07-28T01:04:56.109Z,17.2
2018-07-28T01:05:46.153Z,17.1
2018-07-28T01:06:35.948Z,17.1
2018-07-28T01:07:26.317Z,17.1
2018-07-28T01:08:15.809Z,17.1
2018-07-28T01:09:06.140Z,17.1
2018-07-28T01:09:56.481Z,17.1
2018-07-28T01:10:46.287Z,17.1
2018-07-28T01:11:36.584Z,17.1
2018-07-28T01:12:26.675Z,17.1
2018-07-28T01:13:16.743Z,17.1
2018-07-28T01:14:06.803Z,17.1
2018-07-28T01:19:07.208Z,16.9
2018-07-28T01:19:57.270Z,16.9
2018-07-28T01:20:47.022Z,16.9
2018-07-28T01:22:27.441Z,17.1
2018-07-28T01:23:17.249Z,17.1
2018-07-28T01:24:07.292Z,17.1
2018-07-28T01:24:57.336Z,17.1
2018-07-28T01:25:47.669Z,17.2
2018-07-28T01:26:37.478Z,17.2
2018-07-28T01:27:27.811Z,17.3
2018-07-28T01:28:17.880Z,17.3
2018-07-28T01:29:07.667Z,17.3
2018-07-28T01:29:57.986Z,17.3
2018-07-28T01:30:47.777Z,17.3
2018-07-28T01:31:38.124Z,17.3
2018-07-28T01:32:27.901Z,17.3
2018-07-28T01:33:18.255Z,17.2
2018-07-28T01:34:08.016Z,17.1
2018-07-28T01:34:58.108Z,17.1
2018-07-28T01:35:48.168Z,17.1
2018-07-28T01:36:38.505Z,17.1
2018-07-28T01:37:28.028Z,17.1
2018-07-28T01:38:18.657Z,17.1
2018-07-28T01:39:08.829Z,17.1
2018-07-28T01:39:58.508Z,17.1
2018-07-28T01:40:48.845Z,17.1
2018-07-28T01:41:38.897Z,17.1
2018-07-28T01:42:28.711Z,17.2
2018-07-28T01:43:18.750Z,17.2
2018-07-28T01:44:09.120Z,17.2
2018-07-28T01:44:59.177Z,17.2
2018-07-28T01:45:49.009Z,17.1
2018-07-28T01:46:39.018Z,17.2
2018-07-28T01:47:29.345Z,17.2
2018-07-28T01:48:19.435Z,17.2
2018-07-28T01:49:09.474Z,17.2
2018-07-28T01:49:59.623Z,17.2
2018-07-28T01:50:49.601Z,17.2
2018-07-28T01:51:39.708Z,17.2
2018-07-28T01:52:29.497Z,17.1
2018-07-28T01:53:19.837Z,17.2
2018-07-28T01:54:09.892Z,17.1
2018-07-28T01:54:59.942Z,17.2
2018-07-28T01:55:49.704Z,17.3
2018-07-28T01:56:39.771Z,17.3
2018-07-28T01:57:30.109Z,17.2
2018-07-28T01:58:19.588Z,17.2
2018-07-28T01:59:10.242Z,17.1
2018-07-28T02:00:00.323Z,17.1
2018-07-28T02:00:50.072Z,17.1
2018-07-28T02:01:40.169Z,17.1
2018-07-28T02:02:30.508Z,17.1
2018-07-28T02:04:10.628Z,17.1
2018-07-28T02:07:30.891Z,16.9
2018-07-28T02:08:20.673Z,16.9
2018-07-28T02:09:11.048Z,16.9
2018-07-28T02:10:01.069Z,16.9
2018-07-28T02:10:50.846Z,16.9
2018-07-28T02:11:40.920Z,16.8
2018-07-28T02:12:30.741Z,16.8
2018-07-28T02:13:21.028Z,16.8
2018-07-28T02:14:10.891Z,16.8
2018-07-28T02:15:01.186Z,16.8
2018-07-28T02:15:51.564Z,16.8
2018-07-28T02:16:41.632Z,16.8
2018-07-28T02:17:31.131Z,16.8
2018-07-28T02:18:21.460Z,16.8
2018-07-28T02:19:11.556Z,16.8
2018-07-28T02:20:01.285Z,16.8
2018-07-28T02:20:51.663Z,16.8
2018-07-28T02:21:41.725Z,16.8
2018-07-28T02:22:32.057Z,16.8
2018-07-28T02:23:22.107Z,16.8
2018-07-28T02:24:11.901Z,16.8
2018-07-28T02:25:02.236Z,16.8
2018-07-28T02:25:52.027Z,16.8
2018-07-28T02:26:42.399Z,16.9
2018-07-28T02:27:32.453Z,16.8
2018-07-28T02:28:22.211Z,16.8
2018-07-28T02:29:12.588Z,16.8
2018-07-28T02:30:02.665Z,16.8
2018-07-28T02:30:52.145Z,16.8
2018-07-28T02:31:42.763Z,16.8
2018-07-28T02:32:32.579Z,16.8
2018-07-28T02:33:22.328Z,16.8
2018-07-28T02:34:12.407Z,16.8
2018-07-28T02:35:03.088Z,16.8
2018-07-28T02:35:53.050Z,16.8
2018-07-28T02:36:43.124Z,16.8
2018-07-28T02:37:33.188Z,16.8
2018-07-28T02:38:22.990Z,16.8
2018-07-28T02:39:13.347Z,16.8
2018-07-28T02:40:02.553Z,16.8
2018-07-28T02:40:52.887Z,16.8
2018-07-28T02:41:43.525Z,16.8
2018-07-28T02:42:33.027Z,16.8
2018-07-28T02:43:23.656Z,16.8
2018-07-28T02:44:13.693Z,16.8
2018-07-28T02:45:03.783Z,16.8
2018-07-28T02:45:53.567Z,16.8
2018-07-28T02:46:43.884Z,16.8
2018-07-28T02:47:33.699Z,16.8
2018-07-28T02:48:23.752Z,16.8
2018-07-28T02:49:14.083Z,16.8
2018-07-28T02:50:03.940Z,16.8
2018-07-28T02:50:54.294Z,16.8
2018-07-28T02:51:43.476Z,16.8
2018-07-28T02:52:34.119Z,16.8
2018-07-28T02:53:24.136Z,16.8
2018-07-28T02:54:14.489Z,16.8
2018-07-28T02:55:04.314Z,16.8
2018-07-28T02:55:54.689Z,16.8
2018-07-28T02:56:44.685Z,16.8
2018-07-28T02:57:34.754Z,16.8
2018-07-28T02:58:24.835Z,16.8
2018-07-28T02:59:14.875Z,16.7
2018-07-28T03:00:04.442Z,16.7
2018-07-28T03:00:54.768Z,16.7
2018-07-28T03:01:44.802Z,16.7
2018-07-28T03:02:35.176Z,16.6
2018-07-28T03:03:25.193Z,16.7
2018-07-28T03:04:14.973Z,16.6
2018-07-28T03:05:05.382Z,16.6
2018-07-28T03:05:55.396Z,16.6
2018-07-28T03:06:45.466Z,16.6
2018-07-28T03:07:34.917Z,16.6
2018-07-28T03:08:25.727Z,16.6
2018-07-28T03:09:15.374Z,16.6
2018-07-28T03:10:05.710Z,16.6
2018-07-28T03:10:55.749Z,16.6
2018-07-28T03:11:45.830Z,16.6
2018-07-28T03:12:35.897Z,16.6
2018-07-28T03:13:25.943Z,16.6
2018-07-28T03:14:15.762Z,16.6
2018-07-28T03:15:06.127Z,16.5
2018-07-28T03:15:55.574Z,16.6
2018-07-28T03:16:45.944Z,16.6
2018-07-28T03:17:36.036Z,16.6
2018-07-28T03:18:26.452Z,16.6
2018-07-28T03:19:16.419Z,16.6
2018-07-28T03:20:06.466Z,16.6
2018-07-28T03:20:55.998Z,16.6
2018-07-28T03:21:46.344Z,16.6
2018-07-28T03:22:36.644Z,16.6
2018-07-28T03:23:26.434Z,16.6
2018-07-28T03:24:16.510Z,16.6
2018-07-28T03:25:06.591Z,16.6
2018-07-28T03:25:56.958Z,16.6
2018-07-28T03:26:47.028Z,16.6
2018-07-28T03:27:36.770Z,16.6
2018-07-28T03:28:27.171Z,16.6
2018-07-28T03:29:17.224Z,16.6
2018-07-28T03:30:07.001Z,16.6
2018-07-28T03:30:56.875Z,16.6
2018-07-28T03:31:47.396Z,16.6
2018-07-28T03:32:37.214Z,16.6
2018-07-28T03:33:27.219Z,16.6
2018-07-28T03:34:17.304Z,16.6
2018-07-28T03:35:07.067Z,16.6
2018-07-28T03:35:57.687Z,16.6
2018-07-28T03:36:47.533Z,16.6
2018-07-28T03:37:37.560Z,16.6
2018-07-28T03:38:27.594Z,16.6
2018-07-28T03:39:17.684Z,16.6
2018-07-28T03:40:08.011Z,16.6
2018-07-28T03:40:57.509Z,16.6
2018-07-28T03:41:48.119Z,16.6
2018-07-28T03:42:37.654Z,16.6
2018-07-28T03:43:27.959Z,16.6
2018-07-28T03:44:18.320Z,16.6
2018-07-28T03:45:08.085Z,16.6
2018-07-28T03:45:57.870Z,16.6
2018-07-28T03:46:48.253Z,16.6
2018-07-28T03:47:38.568Z,16.6
2018-07-28T03:48:28.362Z,16.7
2018-07-28T03:49:19.299Z,16.7
2018-07-28T03:50:08.813Z,16.7
2018-07-28T03:50:58.859Z,16.7
2018-07-28T03:51:48.911Z,16.8
2018-07-28T03:52:38.972Z,16.8
2018-07-28T03:53:29.050Z,16.8
2018-07-28T03:54:19.104Z,16.8
2018-07-28T03:55:08.904Z,16.9
2018-07-28T03:55:58.671Z,16.9
2018-07-28T03:56:48.757Z,16.9
2018-07-28T03:57:39.369Z,16.9
2018-07-28T03:58:29.436Z,16.9
2018-07-28T03:59:19.515Z,16.9
2018-07-28T04:00:09.282Z,16.9
2018-07-28T04:00:59.337Z,16.9
2018-07-28T04:05:59.979Z,17.1
2018-07-28T04:06:50.032Z,17.1
2018-07-28T04:07:40.117Z,17.1
2018-07-28T04:08:29.889Z,17.2
2018-07-28T04:09:20.243Z,17.3
2018-07-28T04:10:10.050Z,17.3
2018-07-28T04:11:00.085Z,17.4
2018-07-28T04:11:50.450Z,17.4
2018-07-28T04:12:39.939Z,17.5
2018-07-28T04:13:30.597Z,17.5
2018-07-28T04:14:20.879Z,17.6
2018-07-28T04:15:10.126Z,17.6
2018-07-28T04:16:00.732Z,17.7
2018-07-28T04:16:50.330Z,17.7
2018-07-28T04:17:40.904Z,17.8
2018-07-28T04:18:31.018Z,17.8
2018-07-28T04:19:21.050Z,17.8
2018-07-28T04:20:10.864Z,17.9
2018-07-28T04:21:00.682Z,17.9
2018-07-28T04:21:50.952Z,18
2018-07-28T04:22:41.292Z,18
2018-07-28T04:23:31.344Z,18.1
2018-07-28T04:24:21.417Z,18.1
2018-07-28T04:25:11.487Z,18.1
2018-07-28T04:26:01.600Z,18.2
2018-07-28T04:26:51.596Z,18.3
2018-07-28T04:27:41.389Z,18.3
2018-07-28T04:28:31.714Z,18.3
2018-07-28T04:29:21.604Z,18.3
2018-07-28T04:30:11.878Z,18.4
2018-07-28T04:31:01.945Z,18.4
2018-07-28T04:31:51.709Z,18.4
2018-07-28T04:32:42.045Z,18.4
2018-07-28T04:33:31.650Z,18.5
2018-07-28T04:34:22.215Z,18.5
2018-07-28T04:35:11.962Z,18.5
2018-07-28T04:36:02.051Z,18.6
2018-07-28T04:36:52.351Z,18.6
2018-07-28T04:37:42.352Z,18.6
2018-07-28T04:38:32.503Z,18.6
2018-07-28T04:41:02.724Z,18.8
2018-07-28T04:41:52.321Z,18.8
2018-07-28T04:42:42.794Z,18.8
2018-07-28T04:43:32.988Z,18.9
2018-07-28T04:44:22.200Z,18.9
2018-07-28T04:45:13.011Z,18.9
2018-07-28T04:46:03.060Z,19
2018-07-28T04:46:53.145Z,19
2018-07-28T04:47:43.197Z,19.1
2018-07-28T04:48:32.988Z,19.1
2018-07-28T04:49:23.061Z,19.1
2018-07-28T04:50:13.115Z,19.1
2018-07-28T04:51:03.195Z,19.1
2018-07-28T04:51:53.517Z,19.1
2018-07-28T04:52:43.586Z,19.1
2018-07-28T04:53:33.414Z,19.2
2018-07-28T04:54:23.449Z,19.3
2018-07-28T04:55:13.531Z,19.3
2018-07-28T04:56:03.600Z,19.3
2018-07-28T04:56:53.652Z,19.3
2018-07-28T04:57:43.711Z,19.3
2018-07-28T04:58:33.570Z,19.3
2018-07-28T04:59:23.810Z,19.4
2018-07-28T05:00:14.231Z,19.4
2018-07-28T05:01:03.780Z,19.4
2018-07-28T05:01:53.739Z,19.5
2018-07-28T05:02:44.106Z,19.6
2018-07-28T05:03:34.529Z,19.7
2018-07-28T05:04:24.494Z,19.8
2018-07-28T05:05:14.310Z,19.8
2018-07-28T05:06:04.352Z,19.9
2018-07-28T05:06:54.405Z,20
2018-07-28T05:07:45.559Z,20.1
2018-07-28T05:08:34.350Z,20
2018-07-28T05:09:24.603Z,19.9
2018-07-28T05:10:14.978Z,20
2018-07-28T05:11:04.755Z,19.9
2018-07-28T05:11:54.788Z,19.9
2018-07-28T05:12:44.846Z,20
2018-07-28T05:13:34.613Z,19.9
2018-07-28T05:14:25.250Z,19.9
2018-07-28T05:15:15.038Z,19.9
2018-07-28T05:16:05.122Z,19.8
2018-07-28T05:16:55.449Z,19.8
2018-07-28T05:17:45.494Z,19.9
2018-07-28T05:18:35.291Z,19.9
2018-07-28T05:19:25.356Z,19.9
2018-07-28T05:20:15.426Z,20
2018-07-28T05:21:05.481Z,20.1
2018-07-28T05:21:55.849Z,20.2
2018-07-28T05:22:45.619Z,20.1
2018-07-28T05:23:36.055Z,20.1
2018-07-28T05:24:26.047Z,20.1
2018-07-28T05:25:16.067Z,20.1
2018-07-28T05:26:05.852Z,20
2018-07-28T05:26:56.205Z,20.1
2018-07-28T05:27:46.307Z,20.2
2018-07-28T05:28:35.820Z,20.3
2018-07-28T05:29:26.443Z,20.4
2018-07-28T05:30:16.232Z,20.6
2018-07-28T05:31:06.280Z,20.5
2018-07-28T05:31:56.042Z,20.6
2018-07-28T05:32:46.675Z,20.8
2018-07-28T05:33:36.466Z,20.8
2018-07-28T05:34:26.859Z,20.8
2018-07-28T05:35:16.354Z,20.8
2018-07-28T05:36:06.969Z,20.8
2018-07-28T05:36:56.734Z,20.8
2018-07-28T05:37:46.810Z,20.5
2018-07-28T05:38:37.129Z,20.4
2018-07-28T05:39:26.968Z,20.4
2018-07-28T05:40:17.255Z,20.4
2018-07-28T05:41:07.339Z,20.4
2018-07-28T05:41:57.407Z,20.3
2018-07-28T05:42:47.458Z,20.4
2018-07-28T05:43:37.519Z,20.4
2018-07-28T05:44:27.055Z,20.4
2018-07-28T05:45:17.643Z,20.4
2018-07-28T05:46:07.747Z,20.4
2018-07-28T05:46:57.498Z,20.4
2018-07-28T05:47:47.861Z,20.4
2018-07-28T05:48:37.591Z,20.5
2018-07-28T05:49:27.721Z,20.8
2018-07-28T05:50:18.447Z,20.9
2018-07-28T05:51:58.166Z,21.3
2018-07-28T05:52:48.221Z,21.3
2018-07-28T05:53:37.722Z,21.3
2018-07-28T05:54:28.339Z,21.1
2018-07-28T05:55:18.430Z,20.9
2018-07-28T05:56:08.467Z,21
2018-07-28T05:56:58.258Z,21
2018-07-28T05:57:48.334Z,21.1
2018-07-28T05:58:38.173Z,21.1
2018-07-28T05:59:28.709Z,21
2018-07-28T06:00:18.499Z,20.9
2018-07-28T06:01:08.547Z,20.9
2018-07-28T06:01:58.933Z,20.9
2018-07-28T06:02:49.291Z,20.9
2018-07-28T06:03:39.034Z,21.1
2018-07-28T06:05:18.949Z,21.3
2018-07-28T06:06:09.274Z,21.3
2018-07-28T06:06:58.760Z,21.3
2018-07-28T06:07:49.388Z,21.3
2018-07-28T06:08:39.168Z,21.3
2018-07-28T06:09:29.242Z,21.3
2018-07-28T06:10:19.316Z,21.3
2018-07-28T06:11:09.397Z,21.3
2018-07-28T06:11:59.727Z,21.3
2018-07-28T06:12:48.949Z,21.2
2018-07-28T06:14:29.932Z,21.1
2018-07-28T06:15:19.972Z,21.1
2018-07-28T06:16:09.780Z,21.2
2018-07-28T06:16:59.831Z,21.1
2018-07-28T06:17:50.175Z,20.9
2018-07-28T06:20:20.988Z,21.2
2018-07-28T06:24:30.678Z,21.2
2018-07-28T06:25:20.453Z,21.3
2018-07-28T06:26:10.527Z,21.4
2018-07-28T06:27:00.886Z,21.3
2018-07-28T06:27:51.038Z,21.2
2018-07-28T06:28:40.745Z,21.2
2018-07-28T06:29:30.770Z,21.2
2018-07-28T06:30:20.840Z,21.2
2018-07-28T06:32:01.721Z,21.2
2018-07-28T06:33:41.348Z,21.2
2018-07-28T06:34:31.420Z,21.3
2018-07-28T06:35:21.488Z,21.3
2018-07-28T06:36:11.540Z,21.3
2018-07-28T06:37:01.620Z,21.6
2018-07-28T06:37:51.423Z,21.9
2018-07-28T06:38:41.491Z,22.1
2018-07-28T06:39:31.652Z,22.2
2018-07-28T06:40:21.879Z,22.3
2018-07-28T06:41:11.939Z,22.1
2018-07-28T06:42:02.041Z,22.1
2018-07-28T06:42:52.078Z,22.3
2018-07-28T06:43:41.890Z,22.5
2018-07-28T06:44:32.237Z,22.8
2018-07-28T06:45:21.760Z,22.4
2018-07-28T06:46:12.099Z,22.5
2018-07-28T06:47:02.129Z,22.4
2018-07-28T06:47:52.492Z,22.4
2018-07-28T06:48:42.558Z,22.3
2018-07-28T06:49:32.426Z,22.1
2018-07-28T06:50:22.696Z,22.1
2018-07-28T06:51:12.464Z,22.2
2018-07-28T06:52:02.608Z,22.1
2018-07-28T06:52:52.858Z,22.1
2018-07-28T06:53:42.973Z,22.2
2018-07-28T06:54:33.003Z,22.3
2018-07-28T06:55:22.781Z,22.4
2018-07-28T06:56:13.111Z,22.2
2018-07-28T06:57:02.935Z,21.9
2018-07-28T06:57:53.241Z,22.1
2018-07-28T06:58:43.512Z,22.4
2018-07-28T06:59:33.388Z,22.4
2018-07-28T07:00:23.173Z,22.4
2018-07-28T07:01:13.486Z,22.3
2018-07-28T07:02:03.311Z,22.3
2018-07-28T07:02:53.595Z,22.3
2018-07-28T07:03:43.404Z,22.1
2018-07-28T07:04:33.459Z,22.3
2018-07-28T07:05:23.278Z,22.4
2018-07-28T07:06:13.317Z,22.4
2018-07-28T07:07:03.687Z,22.5
2018-07-28T07:07:53.744Z,22.6
2018-07-28T07:08:44.099Z,22.9
2018-07-28T07:09:34.142Z,23.3
2018-07-28T07:10:23.906Z,23.3
2018-07-28T07:11:14.251Z,23.4
2018-07-28T07:12:04.343Z,23.8
2018-07-28T07:12:54.092Z,23.4
2018-07-28T07:13:44.459Z,23.3
2018-07-28T07:14:34.275Z,22.9
2018-07-28T07:15:24.324Z,22.9
2018-07-28T07:16:14.650Z,22.7
2018-07-28T07:17:04.496Z,22.6
2018-07-28T07:17:54.821Z,22.9
2018-07-28T07:18:44.884Z,23.1
2018-07-28T07:19:34.939Z,23.4
2018-07-28T07:20:25.004Z,23.8
2018-07-28T07:21:15.050Z,23.9
2018-07-28T07:22:04.849Z,24.1
2018-07-28T07:22:55.216Z,24.7
2018-07-28T07:23:44.425Z,24.8
2018-07-28T07:24:35.313Z,25.3
2018-07-28T07:25:24.817Z,24.8
2018-07-28T07:26:15.433Z,24.7
2018-07-28T07:27:05.489Z,24.6
2018-07-28T07:27:55.575Z,24.3
2018-07-28T07:28:45.372Z,23.9
2018-07-28T07:29:35.702Z,23.8
2018-07-28T07:30:25.507Z,23.6
2018-07-28T07:31:15.554Z,23.3
2018-07-28T07:32:05.895Z,23.4
2018-07-28T07:32:55.999Z,23.7
2018-07-28T07:33:45.454Z,23.9
2018-07-28T07:34:36.072Z,24.4
2018-07-28T07:35:26.144Z,24.1
2018-07-28T07:36:16.471Z,24.2
2018-07-28T07:37:06.236Z,23.8
2018-07-28T07:37:55.765Z,23.7
2018-07-28T07:38:46.382Z,23.6
2018-07-28T07:39:36.165Z,23.7
2018-07-28T07:40:26.540Z,23.8
2018-07-28T07:41:16.564Z,24.1
2018-07-28T07:42:06.639Z,24.4
2018-07-28T07:42:56.703Z,24.7
2018-07-28T07:43:46.237Z,25.3
2018-07-28T07:44:36.584Z,25.4
2018-07-28T07:45:26.819Z,25.1
2018-07-28T07:46:16.692Z,25
2018-07-28T07:47:06.552Z,24.6
2018-07-28T07:47:57.136Z,24.2
2018-07-28T07:48:46.888Z,24.1
2018-07-28T07:49:36.666Z,24.3
2018-07-28T07:50:27.029Z,24.6
2018-07-28T07:51:17.101Z,25
2018-07-28T07:52:06.891Z,25.2
2018-07-28T07:52:57.486Z,25.4
2018-07-28T07:53:47.174Z,25.6
2018-07-28T07:54:37.674Z,25.6
2018-07-28T07:55:27.132Z,26
2018-07-28T07:56:16.712Z,25.8
2018-07-28T07:57:07.836Z,25.6
2018-07-28T07:57:57.925Z,25.6
2018-07-28T07:58:47.991Z,25.7
2018-07-28T07:59:38.025Z,26.1
2018-07-28T08:00:27.827Z,26
2018-07-28T08:01:17.597Z,25.6
2018-07-28T08:02:07.955Z,25.4
2018-07-28T08:02:58.265Z,25.4
2018-07-28T08:03:47.779Z,25.5
2018-07-28T08:04:38.132Z,25.1
2018-07-28T08:05:28.485Z,24.8
2018-07-28T08:06:18.695Z,24.9
2018-07-28T08:07:08.594Z,24.9
2018-07-28T08:07:58.654Z,24.9
2018-07-28T08:08:48.727Z,25.4
2018-07-28T08:09:38.314Z,25.8
2018-07-28T08:10:28.881Z,25.6
2018-07-28T08:11:18.889Z,25.6
2018-07-28T08:12:08.407Z,25.7
2018-07-28T08:12:58.472Z,25.8
2018-07-28T08:13:48.571Z,26
2018-07-28T08:14:38.584Z,26.1
2018-07-28T08:15:28.702Z,26.3
2018-07-28T08:16:18.746Z,26.3
2018-07-28T08:17:08.319Z,26
2018-07-28T08:17:59.188Z,25.9
2018-07-28T08:18:49.236Z,26.3
2018-07-28T08:19:39.547Z,26.6
2018-07-28T08:20:29.660Z,26.4
2018-07-28T08:21:19.408Z,26.9
2018-07-28T08:22:09.468Z,27.4
2018-07-28T08:22:59.810Z,27.4
2018-07-28T08:23:49.487Z,27.6
2018-07-28T08:24:39.365Z,26.8
2018-07-28T08:25:29.984Z,26.5
2018-07-28T08:26:20.080Z,26.2
2018-07-28T08:27:09.864Z,26.1
2018-07-28T08:27:59.656Z,25.8
2018-07-28T08:28:49.984Z,25.1
2018-07-28T08:29:40.365Z,24.8
2018-07-28T08:30:29.654Z,25.2
2018-07-28T08:31:20.485Z,25.6
2018-07-28T08:32:10.552Z,25.9
2018-07-28T08:33:00.610Z,26.3
2018-07-28T08:33:50.690Z,26.8
2018-07-28T08:34:40.172Z,26.8
2018-07-28T08:35:30.529Z,27.1
2018-07-28T08:36:20.579Z,26.8
2018-07-28T08:37:10.929Z,26.8
2018-07-28T08:38:00.826Z,26.9
2018-07-28T08:38:51.064Z,26.9
2018-07-28T08:39:40.656Z,26.7
2018-07-28T08:40:31.191Z,26.6
2018-07-28T08:41:21.238Z,26.6
2018-07-28T08:42:11.039Z,26.3
2018-07-28T08:43:01.100Z,26.8
2018-07-28T08:43:51.478Z,27.2
2018-07-28T08:44:41.472Z,27.3
2018-07-28T08:45:31.272Z,27.9
2018-07-28T08:46:21.636Z,28.1
2018-07-28T08:47:11.250Z,27.6
2018-07-28T08:48:52.248Z,27.8
2018-07-28T08:49:42.518Z,27.9
2018-07-28T08:50:31.997Z,28.1
2018-07-28T08:51:22.060Z,28.4
2018-07-28T08:52:12.099Z,28.9
2018-07-28T08:53:01.908Z,28.8
2018-07-28T08:53:51.402Z,28.8
2018-07-28T08:54:42.364Z,28.9
2018-07-28T08:55:32.971Z,28.4
2018-07-28T08:56:22.442Z,28.1
2018-07-28T08:57:11.944Z,28.1
2018-07-28T08:58:02.566Z,27.6
2018-07-28T08:58:52.632Z,27.2
2018-07-28T08:59:42.416Z,27
2018-07-28T09:00:32.748Z,26.9
2018-07-28T09:01:22.575Z,27.1
2018-07-28T09:02:12.875Z,27.3
2018-07-28T09:03:02.148Z,27.6
2018-07-28T09:03:53.019Z,28
2018-07-28T09:04:43.094Z,28.1
2018-07-28T09:05:32.863Z,28.8
2018-07-28T09:06:23.201Z,29
2018-07-28T09:07:13.266Z,28.9
2018-07-28T09:08:03.323Z,28.8
2018-07-28T09:08:52.830Z,28.5
2018-07-28T09:09:43.173Z,28.3
2018-07-28T09:10:33.472Z,28.1
2018-07-28T09:11:23.029Z,27.8
2018-07-28T09:12:13.366Z,28.2
2018-07-28T09:13:03.740Z,28.4
2018-07-28T09:14:43.815Z,28.7
2018-07-28T09:15:33.341Z,28.6
2018-07-28T09:16:24.325Z,28.5
2018-07-28T09:17:13.776Z,28.7
2018-07-28T09:18:04.378Z,28.3
2018-07-28T09:18:53.625Z,27.6
2018-07-28T09:19:43.972Z,27.9
2018-07-28T09:20:34.034Z,27.7
2018-07-28T09:21:23.822Z,27.9
2018-07-28T09:22:14.144Z,28.3
2018-07-28T09:23:04.523Z,28.8
2018-07-28T09:23:54.298Z,28.9
2018-07-28T09:24:44.647Z,29
2018-07-28T09:25:34.746Z,29.1
2018-07-28T09:26:24.775Z,29.1
2018-07-28T09:27:14.831Z,29.3
2018-07-28T09:28:04.914Z,29.7
2018-07-28T09:28:54.479Z,29.3
2018-07-28T09:29:44.752Z,29
2018-07-28T09:31:24.884Z,28.4
2018-07-28T09:32:14.930Z,28.8
2018-07-28T09:33:05.306Z,29
2018-07-28T09:33:55.345Z,29.4
2018-07-28T09:34:45.409Z,29.8
2018-07-28T09:35:35.498Z,30
2018-07-28T09:36:25.561Z,30.2
2018-07-28T09:37:15.620Z,30.4
2018-07-28T09:38:05.673Z,30.3
2018-07-28T09:38:55.774Z,30.3
2018-07-28T09:39:45.535Z,29.9
2018-07-28T09:40:35.877Z,29.4
2018-07-28T09:41:25.905Z,29.6
2018-07-28T09:42:15.713Z,29.9
2018-07-28T09:43:05.494Z,29.6
2018-07-28T09:43:56.113Z,29.3
2018-07-28T09:44:46.177Z,28.8
2018-07-28T09:45:35.991Z,29.1
2018-07-28T09:46:26.928Z,29.6
2018-07-28T09:47:16.406Z,30.2
2018-07-28T09:48:06.163Z,30.6
2018-07-28T09:48:56.493Z,30.3
2018-07-28T09:49:46.312Z,30.1
2018-07-28T09:50:36.069Z,29.7
2018-07-28T09:51:26.407Z,29.7
2018-07-28T09:52:16.201Z,29.7
2018-07-28T09:53:06.517Z,29.9
2018-07-28T09:53:56.911Z,29.7
2018-07-28T09:54:46.715Z,30.1
2018-07-28T09:55:37.060Z,30.5
2018-07-28T09:56:27.100Z,30.5
2018-07-28T09:57:17.189Z,30.4
2018-07-28T09:58:06.977Z,30.6
2018-07-28T09:58:57.307Z,30.6
2018-07-28T09:59:46.809Z,30.3
2018-07-28T10:00:37.452Z,30.3
2018-07-28T10:01:27.319Z,30.4
2018-07-28T10:02:17.573Z,30.4
2018-07-28T10:03:07.634Z,30.5
2018-07-28T10:03:57.471Z,30.9
2018-07-28T10:04:47.485Z,31.1
2018-07-28T10:05:38.513Z,31.4
2018-07-28T10:06:27.883Z,31.4
2018-07-28T10:07:17.962Z,31.3
2018-07-28T10:08:08.019Z,31.2
2018-07-28T10:08:57.819Z,31.2
2018-07-28T10:09:47.580Z,31.1
2018-07-28T10:10:37.926Z,31.1
2018-07-28T10:11:28.269Z,31.3
2018-07-28T10:12:18.354Z,31.5
2018-07-28T10:13:08.397Z,31.6
2018-07-28T10:13:58.187Z,31.2
2018-07-28T10:14:48.261Z,30.9
2018-07-28T10:15:38.604Z,31.3
2018-07-28T10:16:28.117Z,31.4
2018-07-28T10:17:18.731Z,31
2018-07-28T10:18:08.787Z,30.9
2018-07-28T10:18:58.734Z,31.2
2018-07-28T10:19:48.907Z,31.4
2018-07-28T10:20:38.979Z,31.6
2018-07-28T10:21:28.765Z,31.3
2018-07-28T10:22:19.100Z,31.6
2018-07-28T10:23:08.339Z,31.7
2018-07-28T10:23:59.256Z,31.6
2018-07-28T10:24:49.425Z,31.5
2018-07-28T10:25:39.368Z,31.5
2018-07-28T10:26:29.432Z,31.3
2018-07-28T10:27:19.247Z,30.9
2018-07-28T10:28:09.645Z,30.6
2018-07-28T10:28:59.692Z,29.4
2018-07-28T10:29:49.703Z,29.1
2018-07-28T10:30:39.753Z,29.4
2018-07-28T10:31:29.815Z,29.6
2018-07-28T10:32:19.872Z,30.3
2018-07-28T10:33:09.672Z,30.5
2018-07-28T10:33:59.739Z,30.6
2018-07-28T10:34:50.288Z,30.6
2018-07-28T10:35:39.910Z,30.9
2018-07-28T10:36:31.402Z,31.1
2018-07-28T10:37:19.752Z,31.6
2018-07-28T10:38:10.410Z,31.6
2018-07-28T10:39:00.182Z,31.6
2018-07-28T10:39:50.230Z,31.4
2018-07-28T10:40:40.548Z,31.6
2018-07-28T10:41:30.380Z,31.1
2018-07-28T10:42:20.167Z,31
2018-07-28T10:43:10.826Z,30.9
2018-07-28T10:44:00.817Z,31.3
2018-07-28T10:44:50.597Z,31.5
2018-07-28T10:45:41.665Z,31.7
2018-07-28T10:46:31.000Z,30.9
2018-07-28T10:47:20.812Z,30.6
2018-07-28T10:48:11.164Z,30.9
2018-07-28T10:49:00.928Z,31.3
2018-07-28T10:49:51.277Z,30.9
2018-07-28T10:50:41.078Z,31.1
2018-07-28T10:51:31.121Z,31.2
2018-07-28T10:52:21.431Z,31.5
2018-07-28T10:53:11.244Z,31.8
2018-07-28T10:54:01.581Z,31.6
2018-07-28T10:54:51.655Z,31.6
2018-07-28T10:55:41.191Z,31.8
2018-07-28T10:56:31.520Z,32.1
2018-07-28T10:57:21.575Z,32.1
2018-07-28T10:58:11.349Z,32.2
2018-07-28T10:59:01.988Z,32.1
2018-07-28T10:59:52.037Z,31.6
2018-07-28T11:00:42.092Z,31.3
2018-07-28T11:01:31.606Z,31
2018-07-28T11:02:22.240Z,30.4
2018-07-28T11:03:11.716Z,30.2
2018-07-28T11:04:02.150Z,30.5
2018-07-28T11:04:52.159Z,30.6
2018-07-28T11:05:42.227Z,31.4
2018-07-28T11:06:31.998Z,31.6
2018-07-28T11:07:22.619Z,31.2
2018-07-28T11:08:12.401Z,31.1
2018-07-28T11:09:02.781Z,31.3
2018-07-28T11:09:52.573Z,31.4
2018-07-28T11:10:42.614Z,31.3
2018-07-28T11:11:32.974Z,31.5
2018-07-28T11:12:22.769Z,31.8
2018-07-28T11:13:13.136Z,32.3
2018-07-28T11:14:03.156Z,32.6
2018-07-28T11:14:52.954Z,32.8
2018-07-28T11:15:43.284Z,32.7
2018-07-28T11:16:33.056Z,32.3
2018-07-28T11:17:22.868Z,32.1
2018-07-28T11:18:13.539Z,32.1
2018-07-28T11:19:04.412Z,31.9
2018-07-28T11:19:53.138Z,32.4
2018-07-28T11:20:43.428Z,32.2
2018-07-28T11:21:33.484Z,31.8
2018-07-28T11:22:23.827Z,31.1
2018-07-28T11:23:13.898Z,31.9
2018-07-28T11:24:03.682Z,32.2
2018-07-28T11:24:53.744Z,32.4
2018-07-28T11:25:44.063Z,32.4
2018-07-28T11:26:33.877Z,32.8
2018-07-28T11:27:23.954Z,32.8
2018-07-28T11:28:13.956Z,32.4
2018-07-28T11:29:04.304Z,32.6
2018-07-28T11:29:54.355Z,32.1
2018-07-28T11:30:44.203Z,31.6
2018-07-28T11:31:34.375Z,30.9
2018-07-28T11:32:24.603Z,30.9
2018-07-28T11:33:14.920Z,31.4
2018-07-28T11:34:04.719Z,31.8